• Join FlightAware (Why Join?)
  • Login
  • US Flag 
Gobble Gobble! 
04:30AM EST


 

Airport Tracker/Info


-or-


 

Live Flight TrackerFlight Track Log ✈ DAL8920 ✈ 18-Dec-2010 ✈ KABQ - KSLC

Flight Track Log - Related Links

Times and Time Zones

All times are in EST time to prevent confusion due to time zone crossing. See the DAL8920 flight status page for this flight to view local times or setup timezone preferences in your user account.

Time Position Orientation Groundspeed Altitude Reporting Facility
EST Latitude Longitude Course Direction KTS MPH feet Rate Location/Type
08:32PM 35.0414 -106.5800 21° North 170 196 6,200  Level Albuquerque Center
08:33PM 35.0747 -106.5640 329° Northwest 183 211 7,300 1,020 Climbing Albuquerque Center
08:34PM 35.1061 -106.5870 323° Northwest 233 268 7,700 1,620 Climbing Albuquerque Center
08:35PM 35.1544 -106.6320 325° Northwest 275 316 9,800 2,160 Climbing Albuquerque Center
08:36PM 35.2217 -106.6900 326° Northwest 281 323 12,100 2,400 Climbing Albuquerque Center
08:37PM 35.2928 -106.7480 338° Northwest 300 345 14,700 2,640 Climbing Albuquerque Center
08:38PM 35.3786 -106.7910 335° Northwest 314 361 17,400 2,580 Climbing Albuquerque Center
08:39PM 35.4686 -106.8430 338° Northwest 319 367 19,900 2,400 Climbing Albuquerque Center
08:40PM 35.5439 -106.8810 336° Northwest 319 367 22,300 1,980 Climbing Albuquerque Center
08:41PM 35.6275 -106.9270 338° Northwest 319 367 23,900 1,740 Climbing Albuquerque Center
08:42PM 35.7258 -106.9750 337° Northwest 328 377 25,800 1,620 Climbing Albuquerque Center
08:43PM 35.8136 -107.0210 337° Northwest 341 392 27,200 1,320 Climbing Albuquerque Center
08:44PM 35.8950 -107.0640 338° Northwest 347 399 28,500 1,380 Climbing Albuquerque Center
08:45PM 35.9994 -107.1170 338° Northwest 355 409 30,000 1,200 Climbing Albuquerque Center
08:46PM 36.0933 -107.1630 337° Northwest 355 409 30,900 960 Climbing Albuquerque Center
08:47PM 36.2789 -107.2600 337° Northwest 377 434 32,800 840 Climbing Denver Center
08:48PM 36.3764 -107.3120 338° Northwest 377 434 33,500 900 Climbing Denver Center
08:49PM 36.4656 -107.3570 337° Northwest 377 434 34,600 1,200 Climbing Denver Center
08:50PM 36.5714 -107.4130 336° Northwest 372 428 35,900 1,080 Climbing Denver Center
08:51PM 36.6647 -107.4660 337° Northwest 377 434 36,800 540 Climbing Denver Center
08:52PM 36.7600 -107.5160 337° Northwest 371 427 37,000 60 Climbing Denver Center
08:53PM 36.8450 -107.5620 337° Northwest 365 420 37,000  Level Denver Center
08:54PM 36.9467 -107.6150 336° Northwest 365 420 37,000  Level Denver Center
08:55PM 37.0419 -107.6690 338° Northwest 365 420 37,000  Level Denver Center
08:56PM 37.1247 -107.7120 337° Northwest 370 426 37,000  Level Denver Center
08:57PM 37.2181 -107.7630 337° Northwest 370 426 37,000  Level Denver Center
08:58PM 37.3194 -107.8170 336° Northwest 365 420 37,000  Level Denver Center
08:59PM 37.4169 -107.8710 335° Northwest 354 407 37,000  Level Denver Center
09:00PM 37.4997 -107.9190 338° Northwest 370 426 37,000  Level Denver Center
09:01PM 37.5906 -107.9660 337° Northwest 358 412 37,000  Level Denver Center
09:02PM 37.6942 -108.0210 336° Northwest 358 412 37,000 360 Level Denver Center
09:03PM 37.7831 -108.0720 337° Northwest 350 403 37,800 480 Climbing Denver Center
09:04PM 37.8639 -108.1160 337° Northwest 352 405 38,000 60 Climbing Denver Center
09:05PM 37.9672 -108.1710 335° Northwest 364 419 38,000  Level Denver Center
09:06PM 38.0581 -108.2240 334° Northwest 364 419 38,000  Level Denver Center
09:07PM 38.1469 -108.2780 337° Northwest 358 412 38,000  Level Denver Center
09:08PM 38.2317 -108.3230 336° Northwest 358 412 38,000  Level Denver Center
09:09PM 38.3328 -108.3810 336° Northwest 358 412 38,000  Level Denver Center
09:10PM 38.4278 -108.4340 336° Northwest 358 412 38,000  Level Denver Center
09:11PM 38.5208 -108.4870 337° Northwest 358 412 38,000  Level Denver Center
09:12PM 38.6033 -108.5320 335° Northwest 358 412 38,000  Level Denver Center
09:13PM 38.7064 -108.5940 336° Northwest 358 412 38,000  Level Denver Center
09:14PM 38.7992 -108.6470 337° Northwest 358 412 38,000  Level Denver Center
09:15PM 38.8922 -108.6980 335° Northwest 364 419 38,000  Level Denver Center
09:16PM 38.9767 -108.7490 321° Northwest 364 419 38,000  Level Denver Center
09:17PM 39.0542 -108.8310 309° West 347 399 38,000  Level Denver Center
09:18PM 39.1147 -108.9270 297° West 331 381 38,000 -120 Level Denver Center
09:19PM 39.1561 -109.0300 297° West 331 381 37,800 -600 Descending Denver Center
09:20PM 39.1936 -109.1260 298° West 331 381 36,800 -1,080 Descending Denver Center
09:21PM 39.2431 -109.2450 296° West 336 387 35,700 -1,080 Descending Denver Center
09:22PM 39.2861 -109.3570 297° West 341 392 34,700 -960 Descending Denver Center
09:23PM 39.3311 -109.4690 296° West 346 398 33,800 -960 Descending Denver Center
09:24PM 39.3722 -109.5760 298° West 356 410 32,800 -540 Descending Denver Center
09:27PM 39.4764 -109.8340 297° West 358 412 32,100 -300 Descending Salt Lake Center
09:28PM 39.5189 -109.9440 297° West 357 411 32,000 -60 Descending Salt Lake Center
09:29PM 39.5694 -110.0740 297° West 358 412 32,000  Level Salt Lake Center
09:30PM 39.6125 -110.1840 297° West 359 413 32,000  Level Salt Lake Center
09:31PM 39.6561 -110.2950 297° West 360 414 32,100  Climbing Salt Lake Center
09:32PM 39.7072 -110.4260 296° West 362 417 32,000 -360 Descending Salt Lake Center
09:33PM 39.7475 -110.5340 297° West 352 405 31,400 -900 Descending Salt Lake Center
09:34PM 39.7939 -110.6550 297° West 340 391 30,200 -1,080 Descending Salt Lake Center
09:35PM 39.8333 -110.7570 297° West 333 383 29,300 -960 Descending Salt Lake Center
09:36PM 39.8728 -110.8590 296° West 330 380 28,300 -1,080 Descending Salt Lake Center
09:37PM 39.9172 -110.9760 297° West 325 374 27,200 -1,080 Descending Salt Lake Center
09:38PM 39.9553 -111.0740 295° West 320 368 26,200 -1,020 Descending Salt Lake Center
09:39PM 39.9914 -111.1730 296° West 318 366 25,200 -1,500 Descending Salt Lake Center
09:40PM 40.0358 -111.2910 296° West 321 369 23,200 -1,620 Descending Salt Lake Center
09:41PM 40.0758 -111.3960 296° West 333 383 21,900 -1,740 Descending Salt Lake Center
09:42PM 40.1142 -111.5000 293° West 316 364 19,700 -1,680 Descending Salt Lake Center
09:43PM 40.1417 -111.5830 295° West 311 358 19,100 -840 Descending Salt Lake Center
09:44PM 40.1769 -111.6830 297° West 305 351 18,400 -660 Descending Salt Lake Center
09:45PM 40.2131 -111.7780 302° West 293 337 17,800 -780 Descending Salt Lake Center
09:45PM 40.2292 -111.8120 294° West 291 335 17,300 -720 Descending Salt Lake Center
09:46PM 40.2486 -111.8700 298° West 290 334 17,100 -240 Descending Salt Lake Center
09:46PM 40.2642 -111.9080 304° West 288 331 17,100 -240 Level Salt Lake Center
09:47PM 40.2897 -111.9570 334° Northwest 285 328 16,900 -720 Descending Salt Lake Center
09:47PM 40.3247 -111.9790 328° Northwest 308 354 16,400 -1,200 Descending Salt Lake Center
09:48PM 40.3731 -112.0190 336° Northwest 315 362 15,700 -1,020 Descending Salt Lake Center
09:48PM 40.4039 -112.0370 344° North 318 366 15,400 -1,200 Descending Salt Lake Center
09:49PM 40.4556 -112.0560 358° North 324 373 14,500 -1,680 Descending Salt Lake Center
09:49PM 40.4925 -112.0580 352° North 329 379 13,700 -1,500 Descending Salt Lake Center
09:50PM 40.5486 -112.0690 358° North 332 382 13,000 -1,380 Descending Salt Lake Center
09:50PM 40.5850 -112.0710 352° North 330 380 12,300 -1,920 Descending Salt Lake Center
09:51PM 40.6347 -112.0800 358° North 319 367 11,100 -1,320 Descending Salt Lake Center
09:51PM 40.6728 -112.0820 352° North 317 365 11,000 -120 Descending Salt Lake Center
09:52PM 40.7097 -112.0890 360° North 277 319 11,000 60 Level Salt Lake Center
09:52PM 40.7433 -112.0890 354° North 243 280 11,100 60 Climbing Salt Lake Center
09:53PM 40.7728 -112.0930 353° North 226 260 11,100 -120 Level Salt Lake Center
09:53PM 40.8042 -112.0980 357° North 219 252 11,000 -720 Descending Salt Lake Center
09:54PM 40.8344 -112.1000 352° North 219 252 10,400 -1,500 Descending Salt Lake Center
09:54PM 40.8672 -112.1060 357° North 223 257 9,500 -1,680 Descending Salt Lake Center
09:55PM 40.8964 -112.1080 20° North 225 259 8,700 -1,800 Descending Salt Lake Center
09:55PM 40.9289 -112.0920 70° East 237 273 7,700 -1,800 Descending Salt Lake Center
09:56PM 40.9369 -112.0630 101° East 229 264 7,100 -1,140 Descending Salt Lake Center
09:56PM 40.9300 -112.0150 174° South 221 254 6,600 -840 Descending Salt Lake Center
09:57PM 40.9100 -112.0120 174° South 194 223 6,300 -780 Descending Salt Lake Center
09:57PM 40.8825 -112.0080 175° South 160 184 5,800 -780 Descending Salt Lake Center
09:58PM 40.8369 -112.0030 174° South 141 162 4,900 -840 Descending Salt Lake Center
09:59PM 40.7958 -111.9970 174° South 146 168 4,200 -720 Descending Salt Lake Center